Time;durP1;ratioP1;P1;durP2;ratioP2;P2;SDS_P1;SDS_P2;PMS_P1;PMS_P2;Temp;Humidity;BMP_temperature;BMP_pressure;BME280_temperature;BME280_humidity;BME280_pressure;Samples;Min_cycle;Max_cycle;Signal;HPM_P1;HPM_P2
2023/09/13 00:01:52;;;;;;;2.22;0.63;;;15.20;99.90;;;;;;5110160;28;20085;-59
2023/09/13 00:04:18;;;;;;;0.60;0.40;;;18.00;99.90;;;;;;5110204;28;20483;-54
2023/09/13 00:06:44;;;;;;;0.77;0.40;;;15.30;99.90;;;;;;5109731;28;20437;-61
2023/09/13 00:09:10;;;;;;;1.10;0.40;;;17.20;99.90;;;;;;5111935;27;20040;-54
2023/09/13 00:11:36;;;;;;;0.50;0.40;;;;;;;;;;5110263;28;20420;-53
2023/09/13 00:14:02;;;;;;;0.80;0.50;;;18.30;99.90;;;;;;5110900;28;20716;-51
2023/09/13 00:16:27;;;;;;;0.35;0.20;;;17.50;99.90;;;;;;5109933;28;20066;-50
2023/09/13 00:18:53;;;;;;;1.10;0.60;;;14.80;99.90;;;;;;5110401;28;20475;-60
2023/09/13 00:21:20;;;;;;;2.83;0.50;;;17.70;99.90;;;;;;5114249;28;20019;-48
2023/09/13 00:23:46;;;;;;;1.10;0.60;;;;;;;;;;5110605;28;20023;-48
2023/09/13 00:26:13;;;;;;;1.60;0.38;;;18.30;99.90;;;;;;5114739;28;20179;-56
2023/09/13 00:28:39;;;;;;;0.50;0.30;;;15.00;99.90;;;;;;5110247;28;20032;-52
2023/09/13 00:31:07;;;;;;;0.30;0.30;;;15.70;99.90;;;;;;5110004;28;20023;-46
2023/09/13 00:33:33;;;;;;;0.30;0.30;;;17.10;99.90;;;;;;5110463;28;20068;-56
2023/09/13 00:35:59;;;;;;;0.30;0.30;;;19.50;99.90;;;;;;5113577;28;20031;-53
2023/09/13 00:38:24;;;;;;;3.63;0.65;;;16.60;99.90;;;;;;5117483;27;20054;-51
2023/09/13 00:40:50;;;;;;;0.30;0.30;;;16.30;99.90;;;;;;5134301;27;20383;-60
2023/09/13 00:43:15;;;;;;;0.73;0.28;;;14.10;99.90;;;;;;5133369;27;20038;-47
2023/09/13 00:45:41;;;;;;;0.22;0.22;;;18.10;99.90;;;;;;5133392;27;20031;-49
2023/09/13 00:48:08;;;;;;;0.88;0.40;;;17.40;99.90;;;;;;5115342;27;20031;-56
2023/09/13 00:50:36;;;;;;;0.20;0.20;;;17.40;99.90;;;;;;5134606;27;20068;-60
2023/09/13 00:53:03;;;;;;;0.95;0.47;;;18.10;99.90;;;;;;5134158;27;20116;-60
2023/09/13 00:55:31;;;;;;;0.88;0.40;;;17.90;99.90;;;;;;5133948;27;20022;-55
2023/09/13 00:57:57;;;;;;;0.63;0.30;;;17.50;99.90;;;;;;5133780;27;20451;-56
2023/09/13 01:00:26;;;;;;;0.28;0.28;;;18.00;99.90;;;;;;5129328;27;20207;-55
2023/09/13 01:02:54;;;;;;;0.63;0.30;;;17.50;99.90;;;;;;5119354;27;20039;-52
2023/09/13 01:05:19;;;;;;;0.77;0.40;;;17.30;99.90;;;;;;5126001;27;20104;-50
2023/09/13 01:07:47;;;;;;;0.20;0.20;;;17.90;99.90;;;;;;5115704;27;20084;-54
2023/09/13 01:10:13;;;;;;;0.20;0.20;;;14.60;99.90;;;;;;5130009;27;20388;-52
2023/09/13 01:12:39;;;;;;;2.10;0.43;;;14.80;99.90;;;;;;5113712;27;20019;-47
2023/09/13 01:15:07;;;;;;;0.30;0.30;;;16.70;99.90;;;;;;5116069;27;20372;-49
2023/09/13 01:17:49;;;;;;;0.20;0.20;;;17.10;99.90;;;;;;5114221;27;20024;-48
2023/09/13 01:20:15;;;;;;;0.20;0.20;;;17.30;99.90;;;;;;5113260;27;20482;-49
2023/09/13 01:23:20;;;;;;;0.20;0.20;;;14.20;99.90;;;;;;5117775;27;20027;-45
2023/09/13 01:26:08;;;;;;;0.22;0.20;;;14.30;99.90;;;;;;5112995;27;20024;-47
2023/09/13 01:28:35;;;;;;;0.63;0.30;;;;;;;;;;5113245;27;20031;-46
2023/09/13 01:31:09;;;;;;;1.33;0.30;;;17.40;99.90;;;;;;5113391;27;20019;-56
2023/09/13 01:33:35;;;;;;;0.20;0.20;;;16.70;99.90;;;;;;5113342;28;20026;-54
2023/09/13 01:36:02;;;;;;;0.55;0.30;;;;;;;;;;5113605;27;20099;-59
2023/09/13 01:38:28;;;;;;;0.20;0.20;;;16.50;99.90;;;;;;5113018;27;20257;-42
2023/09/13 01:41:13;;;;;;;0.63;0.30;;;17.90;99.90;;;;;;5113311;27;20031;-51
2023/09/13 01:43:41;;;;;;;0.22;0.22;;;16.40;99.90;;;;;;5113526;27;20023;-53
2023/09/13 01:46:07;;;;;;;0.20;0.20;;;13.80;99.90;;;;;;5112824;27;20024;-56
2023/09/13 01:48:35;;;;;;;0.68;0.40;;;16.00;99.90;;;;;;5113480;27;20313;-55
2023/09/13 01:51:02;;;;;;;0.65;0.30;;;18.50;99.90;;;;;;5112741;27;20016;-55
2023/09/13 01:53:28;;;;;;;0.30;0.22;;;17.50;99.90;;;;;;5113213;27;20395;-57
2023/09/13 01:55:54;;;;;;;0.20;0.20;;;;;;;;;;5112854;27;20073;-47
2023/09/13 01:58:20;;;;;;;2.05;0.50;;;16.50;99.90;;;;;;5113072;27;20408;-56
2023/09/13 02:00:46;;;;;;;0.20;0.17;;;18.40;99.90;;;;;;5112635;27;20020;-43
2023/09/13 02:03:12;;;;;;;0.30;0.30;;;18.50;99.90;;;;;;5113622;27;20035;-40
2023/09/13 02:05:38;;;;;;;0.20;0.20;;;13.50;99.90;;;;;;5112747;27;20019;-43
2023/09/13 02:08:03;;;;;;;0.30;0.30;;;17.00;99.90;;;;;;5112618;27;20028;-41
2023/09/13 02:10:29;;;;;;;0.20;0.20;;;13.60;99.90;;;;;;5112816;27;20016;-43
2023/09/13 02:12:55;;;;;;;0.50;0.32;;;17.40;99.90;;;;;;5114851;27;20027;-41
2023/09/13 02:15:21;;;;;;;0.52;0.38;;;;;;;;;;5112662;27;20483;-42
2023/09/13 02:17:47;;;;;;;1.55;0.32;;;17.60;99.90;;;;;;5111896;27;20088;-48
2023/09/13 02:20:12;;;;;;;0.40;0.30;;;15.90;99.90;;;;;;5113099;27;20020;-40
2023/09/13 02:22:38;;;;;;;0.50;0.30;;;16.40;99.90;;;;;;5111923;27;20118;-41
2023/09/13 02:25:05;;;;;;;0.68;0.38;;;16.40;99.90;;;;;;5112687;27;20012;-40
2023/09/13 02:27:32;;;;;;;1.65;0.47;;;18.50;99.90;;;;;;5113894;27;20043;-40
2023/09/13 02:29:58;;;;;;;0.30;0.30;;;17.30;99.90;;;;;;5114147;27;20023;-40
2023/09/13 02:32:24;;;;;;;0.50;0.40;;;15.90;99.90;;;;;;5111935;27;20053;-42
2023/09/13 02:34:49;;;;;;;0.50;0.40;;;13.20;99.90;;;;;;5112478;27;20039;-40
2023/09/13 02:37:15;;;;;;;1.17;0.52;;;18.40;99.90;;;;;;5111663;27;20104;-40
2023/09/13 02:39:42;;;;;;;0.40;0.40;;;18.20;99.90;;;;;;5131413;27;20203;-41
2023/09/13 02:42:08;;;;;;;0.60;0.47;;;17.00;99.90;;;;;;5131702;27;20035;-41
2023/09/13 02:44:35;;;;;;;0.40;0.40;;;19.30;99.90;;;;;;5113332;27;20092;-41
2023/09/13 02:47:01;;;;;;;0.80;0.52;;;15.90;99.90;;;;;;5131885;27;20023;-43
2023/09/13 02:49:27;;;;;;;0.57;0.50;;;16.00;99.90;;;;;;5131931;27;20023;-41
2023/09/13 02:51:54;;;;;;;1.48;0.47;;;17.80;99.90;;;;;;5131589;27;20391;-41
2023/09/13 02:54:20;;;;;;;0.40;0.40;;;17.40;99.90;;;;;;5131571;27;20035;-41
2023/09/13 02:56:47;;;;;;;0.93;0.50;;;14.60;99.90;;;;;;5131194;27;20023;-40
2023/09/13 02:59:13;;;;;;;0.50;0.50;;;16.50;99.90;;;;;;5131288;27;20027;-40
2023/09/13 03:01:40;;;;;;;0.60;0.40;;;18.30;99.90;;;;;;5131732;27;20391;-40
2023/09/13 03:04:05;;;;;;;0.40;0.40;;;16.00;99.90;;;;;;5131272;27;20019;-40
2023/09/13 03:06:31;;;;;;;1.15;0.40;;;14.10;99.90;;;;;;5131186;27;20516;-42
2023/09/13 03:08:56;;;;;;;0.80;0.65;;;17.30;99.90;;;;;;5131378;27;20372;-47
2023/09/13 03:11:22;;;;;;;0.32;0.30;;;;;;;;;;5131279;27;20052;-49
2023/09/13 03:13:48;;;;;;;1.70;0.82;;;16.80;99.90;;;;;;5131196;27;20026;-57
2023/09/13 03:16:18;;;;;;;3.88;0.45;;;16.20;99.90;;;;;;5131206;27;20048;-53
2023/09/13 03:18:46;;;;;;;0.80;0.40;;;16.90;99.90;;;;;;5118942;27;20024;-48
2023/09/13 03:21:12;;;;;;;0.63;0.40;;;16.40;99.90;;;;;;5114412;27;20126;-50
2023/09/13 03:23:39;;;;;;;0.55;0.43;;;16.20;99.90;;;;;;5116992;27;20019;-54
2023/09/13 03:26:17;;;;;;;0.20;0.20;;;15.50;99.90;;;;;;5129113;27;20102;-53
2023/09/13 03:28:44;;;;;;;1.05;0.50;;;16.20;99.90;;;;;;5120253;28;20065;-44
2023/09/13 03:31:18;;;;;;;0.47;0.30;;;16.20;99.90;;;;;;5130773;27;20416;-53
2023/09/13 03:33:46;;;;;;;1.25;0.50;;;16.80;99.90;;;;;;5131366;27;20436;-53
2023/09/13 03:36:13;;;;;;;0.68;0.47;;;13.40;99.90;;;;;;5127244;27;20419;-49
2023/09/13 03:38:40;;;;;;;0.98;0.43;;;14.00;99.90;;;;;;5129748;27;20051;-53
2023/09/13 03:41:11;;;;;;;0.90;0.32;;;16.30;99.90;;;;;;5131113;28;20027;-43
2023/09/13 03:43:37;;;;;;;1.05;0.30;;;16.50;99.90;;;;;;5128623;28;20023;-54
2023/09/13 03:46:04;;;;;;;0.30;0.30;;;18.10;99.90;;;;;;5112811;28;20043;-56
2023/09/13 03:48:30;;;;;;;1.52;0.55;;;13.10;99.90;;;;;;5130555;28;20501;-52
2023/09/13 03:50:57;;;;;;;0.85;0.50;;;13.20;99.90;;;;;;5130886;28;20113;-55
2023/09/13 03:53:23;;;;;;;0.88;0.47;;;17.10;99.90;;;;;;5123230;27;20552;-47
2023/09/13 03:55:50;;;;;;;1.88;0.40;;;17.10;99.90;;;;;;5130986;27;20114;-54
2023/09/13 03:58:16;;;;;;;1.65;0.60;;;;;;;;;;5130673;28;20379;-43
2023/09/13 04:00:41;;;;;;;0.75;0.43;;;14.60;99.90;;;;;;5130862;27;20042;-53
2023/09/13 04:03:07;;;;;;;1.77;0.55;;;13.50;99.90;;;;;;5131002;28;20484;-56
2023/09/13 04:05:33;;;;;;;0.88;0.60;;;16.10;99.90;;;;;;5130625;28;20114;-46
2023/09/13 04:07:59;;;;;;;1.75;0.70;;;16.60;99.90;;;;;;5130110;27;20031;-53
2023/09/13 04:10:25;;;;;;;2.55;0.75;;;15.70;99.90;;;;;;5133223;27;20027;-58
2023/09/13 04:12:50;;;;;;;2.17;0.60;;;15.40;99.90;;;;;;5134879;27;20023;-57
2023/09/13 04:15:16;;;;;;;1.45;0.70;;;16.00;99.90;;;;;;5134418;27;20035;-47
2023/09/13 04:17:42;;;;;;;1.13;0.70;;;16.30;99.90;;;;;;5134797;27;20494;-54
2023/09/13 04:20:09;;;;;;;1.85;0.80;;;17.20;99.90;;;;;;5134465;27;20038;-53
2023/09/13 04:22:35;;;;;;;1.52;0.90;;;16.90;99.90;;;;;;5134247;27;20440;-59
2023/09/13 04:25:01;;;;;;;4.55;0.93;;;17.30;99.90;;;;;;5134917;27;20106;-42
2023/09/13 04:27:27;;;;;;;1.35;0.60;;;;;;;;;;5127264;27;20142;-40
2023/09/13 04:29:57;;;;;;;3.58;1.13;;;13.40;99.90;;;;;;5135149;27;20110;-56
2023/09/13 04:32:26;;;;;;;1.45;0.80;;;17.10;99.90;;;;;;5135377;27;20019;-41
2023/09/13 04:34:52;;;;;;;3.33;1.00;;;17.40;99.90;;;;;;5129103;27;20023;-42
2023/09/13 04:37:18;;;;;;;1.92;0.73;;;17.10;99.90;;;;;;5133794;27;20487;-49
2023/09/13 04:39:43;;;;;;;2.67;1.10;;;18.10;99.90;;;;;;5134358;27;20033;-54
2023/09/13 04:42:10;;;;;;;4.20;1.13;;;16.10;99.90;;;;;;5134246;27;20022;-41
2023/09/13 04:44:37;;;;;;;0.85;0.65;;;15.90;99.90;;;;;;5134189;27;20020;-43
2023/09/13 04:47:03;;;;;;;1.95;0.80;;;16.80;99.90;;;;;;5134019;27;20035;-49
2023/09/13 04:49:29;;;;;;;4.53;1.02;;;;;;;;;;5133718;27;20053;-41
2023/09/13 04:51:56;;;;;;;4.30;1.00;;;16.80;99.90;;;;;;5133660;27;20467;-47
2023/09/13 04:54:22;;;;;;;3.15;0.98;;;16.50;99.90;;;;;;5115179;27;20031;-49
2023/09/13 04:56:51;;;;;;;3.65;1.00;;;15.30;99.90;;;;;;5133996;27;20030;-47
2023/09/13 04:59:17;;;;;;;3.35;1.00;;;16.50;99.90;;;;;;5134200;27;20026;-56
2023/09/13 05:01:43;;;;;;;1.33;0.80;;;;;;;;;;5133242;27;20099;-48
2023/09/13 05:04:10;;;;;;;1.83;0.80;;;17.90;99.90;;;;;;5133651;27;20030;-46
2023/09/13 05:06:35;;;;;;;3.72;0.88;;;17.80;99.90;;;;;;5133340;27;20364;-54
2023/09/13 05:09:01;;;;;;;3.10;0.88;;;16.60;99.90;;;;;;5133572;27;20118;-48
2023/09/13 05:11:27;;;;;;;2.67;1.08;;;13.60;99.90;;;;;;5133662;27;20034;-55
2023/09/13 05:14:12;;;;;;;2.00;0.80;;;15.70;99.90;;;;;;5133668;27;20023;-47
2023/09/13 05:16:37;;;;;;;1.60;0.75;;;12.40;99.90;;;;;;5133489;27;20034;-50
2023/09/13 05:19:03;;;;;;;2.28;1.10;;;17.90;99.90;;;;;;5133224;27;20027;-51
2023/09/13 05:21:29;;;;;;;4.88;1.23;;;16.90;99.90;;;;;;5130892;27;20031;-46
2023/09/13 05:23:54;;;;;;;1.45;0.77;;;17.50;99.90;;;;;;5122478;27;20110;-55
2023/09/13 05:26:20;;;;;;;2.08;0.95;;;16.20;99.90;;;;;;5118602;27;20035;-50
2023/09/13 05:28:46;;;;;;;3.63;1.00;;;13.20;99.90;;;;;;5125795;27;20039;-51
2023/09/13 05:31:11;;;;;;;1.00;0.60;;;16.60;99.90;;;;;;5130821;27;20034;-41
2023/09/13 05:33:37;;;;;;;6.38;2.17;;;17.60;99.90;;;;;;5121677;27;20023;-46
2023/09/13 05:36:10;;;;;;;3.13;1.10;;;15.60;99.90;;;;;;5123223;27;20027;-42
2023/09/13 05:38:36;;;;;;;2.90;1.13;;;16.70;99.90;;;;;;5128928;27;20146;-55
2023/09/13 05:41:07;;;;;;;3.47;1.27;;;15.60;99.90;;;;;;5128992;27;20488;-47
2023/09/13 05:43:36;;;;;;;6.47;0.85;;;16.50;99.90;;;;;;5112543;28;20016;-58
2023/09/13 05:46:02;;;;;;;2.05;1.33;;;;;;;;;;5113083;27;20027;-44
2023/09/13 05:48:28;;;;;;;1.80;0.90;;;16.10;99.90;;;;;;5112413;28;20028;-54
2023/09/13 05:50:54;;;;;;;3.03;0.75;;;16.70;99.90;;;;;;5122244;27;20034;-44
2023/09/13 05:53:19;;;;;;;2.83;0.80;;;16.00;99.90;;;;;;5121165;27;20047;-53
2023/09/13 05:55:49;;;;;;;2.15;0.80;;;16.50;99.90;;;;;;5123128;27;20491;-50
2023/09/13 05:58:14;;;;;;;2.33;0.90;;;16.80;99.90;;;;;;5115670;27;20081;-56
2023/09/13 06:00:46;;;;;;;3.15;0.95;;;16.30;99.90;;;;;;5113879;27;20484;-50
2023/09/13 06:03:12;;;;;;;2.30;0.80;;;12.60;99.90;;;;;;5121626;27;20027;-52
2023/09/13 06:05:38;;;;;;;4.38;0.82;;;;;;;;;;5114174;27;20474;-46
2023/09/13 06:08:04;;;;;;;3.53;0.95;;;16.90;99.90;;;;;;5112346;27;20406;-60
2023/09/13 06:10:30;;;;;;;2.75;1.10;;;;;;;;;;5120560;27;20081;-46
2023/09/13 06:12:56;;;;;;;4.35;0.98;;;17.70;99.90;;;;;;5112023;28;20150;-53
2023/09/13 06:15:21;;;;;;;3.35;0.93;;;16.40;99.90;;;;;;5115606;27;20387;-47
2023/09/13 06:17:48;;;;;;;3.65;0.85;;;;;;;;;;5114306;27;20031;-54
2023/09/13 06:20:14;;;;;;;3.50;0.88;;;;;;;;;;5112194;27;20024;-47
2023/09/13 06:22:39;;;;;;;2.35;0.88;;;16.30;99.90;;;;;;5123529;27;20051;-55
2023/09/13 06:25:05;;;;;;;1.90;0.70;;;16.40;99.90;;;;;;5121266;27;20051;-55
2023/09/13 06:27:31;;;;;;;3.03;0.80;;;17.40;99.90;;;;;;5116382;27;20046;-51
2023/09/13 06:29:57;;;;;;;3.05;0.88;;;18.00;99.90;;;;;;5126953;27;20022;-43
2023/09/13 06:32:23;;;;;;;1.55;0.77;;;17.80;99.90;;;;;;5112684;27;20027;-49
2023/09/13 06:34:49;;;;;;;3.78;0.80;;;16.90;99.90;;;;;;5115697;27;20082;-54
2023/09/13 06:37:15;;;;;;;6.28;1.05;;;13.50;99.90;;;;;;5120492;27;20038;-51
2023/09/13 06:39:41;;;;;;;3.80;0.90;;;15.90;99.90;;;;;;5116291;27;20023;-55
2023/09/13 06:42:06;;;;;;;4.68;0.70;;;17.10;99.90;;;;;;5120298;27;20024;-55
2023/09/13 06:44:32;;;;;;;2.83;0.60;;;14.90;99.90;;;;;;5115824;27;20023;-47
2023/09/13 06:46:58;;;;;;;7.50;1.10;;;16.50;99.90;;;;;;5119511;27;20035;-56
2023/09/13 06:49:24;;;;;;;2.33;0.80;;;;;;;;;;5116186;27;20034;-46
2023/09/13 06:51:51;;;;;;;3.70;1.08;;;13.60;99.90;;;;;;5123519;27;20023;-53
2023/09/13 06:54:18;;;;;;;4.05;0.98;;;15.90;99.90;;;;;;5120500;27;20031;-53
2023/09/13 06:56:44;;;;;;;5.00;1.05;;;;;;;;;;5120694;27;20019;-59
2023/09/13 06:59:10;;;;;;;6.07;1.15;;;14.00;99.90;;;;;;5119140;27;20050;-41
2023/09/13 07:01:35;;;;;;;3.20;1.33;;;14.50;99.90;;;;;;5124944;27;20023;-49
2023/09/13 07:04:02;;;;;;;2.25;0.82;;;13.80;99.90;;;;;;5118657;27;20102;-49
2023/09/13 07:06:28;;;;;;;1.63;0.60;;;13.90;99.90;;;;;;5103007;27;20015;-45
2023/09/13 07:08:54;;;;;;;3.15;0.60;;;;;;;;;;5109168;28;20093;-44
2023/09/13 07:11:20;;;;;;;2.05;0.68;;;;;;;;;;5097810;27;20505;-42
2023/09/13 07:13:46;;;;;;;7.97;1.42;;;17.30;99.90;;;;;;5126765;27;20106;-40
2023/09/13 07:16:12;;;;;;;4.45;0.80;;;16.50;99.90;;;;;;5130023;27;20097;-54
2023/09/13 07:18:37;;;;;;;3.00;0.57;;;16.30;99.90;;;;;;5122464;27;20090;-48
2023/09/13 07:21:03;;;;;;;3.50;0.80;;;16.40;99.90;;;;;;5114048;27;20026;-53
2023/09/13 07:23:29;;;;;;;1.52;0.60;;;18.70;99.90;;;;;;5119402;27;20023;-53
2023/09/13 07:25:54;;;;;;;2.65;0.90;;;17.00;99.90;;;;;;5112884;28;20416;-55
2023/09/13 07:28:20;;;;;;;3.90;0.90;;;17.90;99.90;;;;;;5119440;27;20039;-58
2023/09/13 07:30:46;;;;;;;4.03;1.10;;;19.20;99.90;;;;;;5131453;27;20023;-52
2023/09/13 07:33:12;;;;;;;3.17;1.10;;;17.00;99.90;;;;;;5131532;27;20068;-50
2023/09/13 07:35:38;;;;;;;3.40;1.00;;;18.90;99.90;;;;;;5131339;28;20033;-56
2023/09/13 07:38:04;;;;;;;3.25;0.75;;;;;;;;;;5130971;27;20058;-53
2023/09/13 07:40:30;;;;;;;2.83;1.00;;;18.30;99.90;;;;;;5130943;27;20531;-56
2023/09/13 07:42:55;;;;;;;3.28;0.70;;;17.70;99.90;;;;;;5130955;27;20039;-56
2023/09/13 07:45:21;;;;;;;2.25;0.90;;;;;;;;;;5134242;27;20042;-44
2023/09/13 07:47:47;;;;;;;3.22;0.77;;;15.50;99.90;;;;;;5127709;27;20633;-57
2023/09/13 07:50:32;;;;;;;5.80;0.98;;;18.90;99.90;;;;;;5120958;27;20020;-53
2023/09/13 07:52:58;;;;;;;1.63;0.80;;;15.40;99.90;;;;;;5121901;27;20046;-59
2023/09/13 07:55:24;;;;;;;1.95;0.70;;;14.40;99.90;;;;;;5120261;27;20418;-55
2023/09/13 07:57:50;;;;;;;1.83;0.70;;;;;;;;;;5121059;27;20085;-44
2023/09/13 08:00:16;;;;;;;3.88;1.08;;;16.70;99.90;;;;;;5123931;27;20035;-55
2023/09/13 08:02:44;;;;;;;5.65;0.88;;;18.70;99.90;;;;;;5127361;27;20474;-41
2023/09/13 08:05:09;;;;;;;4.47;1.00;;;;;;;;;;5125434;27;20213;-48
2023/09/13 08:07:35;;;;;;;1.63;1.15;;;19.20;99.90;;;;;;5129879;27;20535;-56
2023/09/13 08:10:02;;;;;;;3.35;0.77;;;18.80;99.90;;;;;;5124209;27;20065;-41
2023/09/13 08:12:28;;;;;;;4.40;1.02;;;20.70;99.90;;;;;;5114700;27;20020;-48
2023/09/13 08:14:54;;;;;;;3.50;0.90;;;21.40;99.90;;;;;;5124418;27;20096;-48
2023/09/13 08:17:20;;;;;;;3.00;0.73;;;21.30;99.90;;;;;;5126462;27;20061;-53
2023/09/13 08:19:46;;;;;;;5.53;1.05;;;21.60;99.90;;;;;;5133137;27;20391;-43
2023/09/13 08:22:12;;;;;;;2.45;0.95;;;24.20;99.90;;;;;;5120995;27;20058;-47
2023/09/13 08:24:38;;;;;;;2.17;1.00;;;22.40;99.90;;;;;;5126789;27;20019;-41
2023/09/13 08:27:04;;;;;;;3.17;0.77;;;23.40;99.90;;;;;;5117966;27;20030;-43
2023/09/13 08:29:30;;;;;;;4.72;0.88;;;23.70;99.90;;;;;;5132789;27;20015;-56
2023/09/13 08:31:56;;;;;;;1.10;0.70;;;23.70;99.90;;;;;;5134686;27;20413;-54
2023/09/13 08:34:23;;;;;;;2.97;0.77;;;24.10;99.90;;;;;;5131578;27;20395;-52
2023/09/13 08:36:49;;;;;;;1.45;0.65;;;;;;;;;;5114006;28;20135;-52
2023/09/13 08:39:15;;;;;;;3.78;0.80;;;24.10;99.90;;;;;;5115968;27;20068;-51
2023/09/13 08:41:43;;;;;;;3.42;1.00;;;24.20;99.90;;;;;;5123956;27;20019;-53
2023/09/13 08:44:09;;;;;;;1.85;0.55;;;24.30;99.90;;;;;;5134411;27;20043;-52
2023/09/13 08:46:36;;;;;;;3.13;0.90;;;25.10;99.90;;;;;;5134562;27;20080;-47
2023/09/13 08:49:05;;;;;;;2.28;0.90;;;26.00;99.90;;;;;;5133733;27;20039;-42
2023/09/13 08:51:32;;;;;;;;;;;25.20;99.90;;;;;;5128528;27;20363;-51
2023/09/13 08:53:58;;;;;;;2.63;0.90;;;25.80;99.90;;;;;;5133131;27;19907;-45
2023/09/13 08:56:24;;;;;;;1.48;0.70;;;25.80;99.90;;;;;;5128684;27;20106;-46
2023/09/13 08:58:51;;;;;;;1.88;0.80;;;26.00;99.90;;;;;;5123795;27;20030;-53
2023/09/13 09:01:19;;;;;;;2.35;0.85;;;25.70;99.90;;;;;;5123786;27;20081;-48
2023/09/13 09:03:48;;;;;;;5.18;1.08;;;25.50;99.90;;;;;;5115078;27;20048;-51
2023/09/13 09:06:17;;;;;;;1.65;0.75;;;25.00;99.90;;;;;;5113453;28;20106;-52
2023/09/13 09:08:45;;;;;;;1.33;0.68;;;24.40;99.90;;;;;;5116965;27;20533;-47
2023/09/13 09:11:11;;;;;;;1.42;0.70;;;23.60;99.90;;;;;;5113453;28;20020;-44
2023/09/13 09:13:38;;;;;;;4.30;1.13;;;21.90;99.90;;;;;;5119903;27;20027;-55
2023/09/13 09:16:06;;;;;;;2.97;1.27;;;25.40;99.90;;;;;;5113796;27;20034;-47
2023/09/13 09:18:33;;;;;;;3.85;1.20;;;22.30;99.90;;;;;;5125161;27;20049;-46
2023/09/13 09:21:00;;;;;;;4.85;2.03;;;21.90;99.90;;;;;;5123064;27;20027;-51
2023/09/13 09:23:28;;;;;;;3.20;1.30;;;21.50;99.90;;;;;;5121177;27;20172;-52
2023/09/13 09:25:54;;;;;;;1.23;0.77;;;18.20;99.90;;;;;;5108078;27;20355;-45
2023/09/13 09:28:22;;;;;;;3.63;0.85;;;19.30;99.90;;;;;;5126914;27;20035;-42
2023/09/13 09:30:51;;;;;;;3.30;1.55;;;21.20;99.90;;;;;;5130948;27;20041;-49
2023/09/13 09:33:26;;;;;;;3.60;1.15;;;22.00;99.90;;;;;;5121964;27;20046;-47
2023/09/13 09:35:54;;;;;;;4.38;1.20;;;22.00;99.90;;;;;;5114298;27;20016;-53
2023/09/13 09:38:21;;;;;;;5.10;1.10;;;23.50;99.90;;;;;;5111655;28;20039;-53
2023/09/13 09:40:48;;;;;;;2.85;1.38;;;19.00;99.90;;;;;;5112155;28;20035;-48
2023/09/13 09:43:13;;;;;;;3.65;0.85;;;21.70;99.90;;;;;;5112669;28;20052;-45
2023/09/13 09:45:39;;;;;;;4.40;0.90;;;20.40;99.90;;;;;;5112798;28;20560;-55
2023/09/13 09:48:06;;;;;;;2.72;0.90;;;21.90;99.90;;;;;;5112461;28;20541;-48
2023/09/13 09:50:32;;;;;;;2.40;1.02;;;19.70;99.90;;;;;;5112407;28;20098;-42
2023/09/13 09:52:58;;;;;;;2.40;0.93;;;24.20;99.90;;;;;;5110854;28;20068;-46
2023/09/13 09:55:25;;;;;;;2.67;0.77;;;22.20;99.90;;;;;;5110415;28;20035;-51
2023/09/13 09:57:52;;;;;;;2.08;0.80;;;22.50;99.90;;;;;;5092091;28;20024;-46
2023/09/13 10:00:18;;;;;;;2.50;1.00;;;24.70;99.90;;;;;;5110944;28;20062;-47
2023/09/13 10:02:45;;;;;;;3.53;0.88;;;22.60;99.90;;;;;;5111174;28;20047;-53
2023/09/13 10:05:16;;;;;;;1.60;0.70;;;23.10;99.90;;;;;;5111542;28;20102;-43
2023/09/13 10:07:55;;;;;;;4.53;1.13;;;23.00;99.90;;;;;;5093086;28;20502;-44
2023/09/13 10:10:28;;;;;;;4.78;0.90;;;23.10;99.90;;;;;;5111989;28;20020;-45
2023/09/13 10:12:54;;;;;;;3.30;1.00;;;22.80;99.90;;;;;;5111979;28;20106;-45
2023/09/13 10:15:20;;;;;;;7.45;1.30;;;22.60;99.90;;;;;;5111966;28;20043;-49
2023/09/13 10:17:48;;;;;;;6.40;1.30;;;22.30;99.90;;;;;;5093779;28;20058;-48
2023/09/13 10:20:16;;;;;;;2.40;0.77;;;22.10;99.90;;;;;;5111737;28;20016;-45
2023/09/13 10:22:45;;;;;;;6.00;1.00;;;22.00;99.90;;;;;;5115758;27;20030;-42
2023/09/13 10:25:14;;;;;;;4.80;1.10;;;19.00;99.90;;;;;;5125663;27;20027;-45
2023/09/13 10:27:43;;;;;;;3.58;0.93;;;22.00;99.90;;;;;;5104096;27;20039;-52
2023/09/13 10:30:11;;;;;;;3.40;0.80;;;21.80;99.90;;;;;;5127390;27;20059;-42
2023/09/13 10:32:45;;;;;;;4.15;0.80;;;21.70;99.90;;;;;;5128661;27;20023;-45
2023/09/13 10:35:12;;;;;;;3.60;1.15;;;19.30;99.90;;;;;;5131053;27;20020;-48
2023/09/13 10:37:50;;;;;;;2.63;1.05;;;21.50;99.90;;;;;;5130824;27;20054;-50
2023/09/13 10:40:23;;;;;;;2.90;0.90;;;19.70;99.90;;;;;;5117683;27;20058;-46
2023/09/13 10:42:49;;;;;;;4.72;1.13;;;21.40;99.90;;;;;;5124466;27;20484;-51
2023/09/13 10:45:18;;;;;;;3.05;1.05;;;21.40;99.90;;;;;;5130122;27;20027;-52
2023/09/13 10:47:49;;;;;;;4.43;1.15;;;20.70;99.90;;;;;;5127511;27;20032;-50
2023/09/13 10:50:16;;;;;;;4.05;1.25;;;21.30;99.90;;;;;;5113694;27;20027;-59
2023/09/13 10:52:46;;;;;;;3.72;1.38;;;21.30;99.90;;;;;;5111321;28;20034;-50
2023/09/13 10:55:13;;;;;;;4.07;1.20;;;22.80;99.90;;;;;;5116471;27;20105;-55
2023/09/13 10:57:42;;;;;;;4.40;1.23;;;21.40;99.90;;;;;;5111377;27;20471;-54
2023/09/13 11:00:12;;;;;;;3.72;1.08;;;21.70;99.90;;;;;;5124997;27;20023;-53
2023/09/13 11:02:40;;;;;;;4.05;1.00;;;20.60;99.90;;;;;;5122985;27;20023;-50
2023/09/13 11:05:08;;;;;;;3.17;1.30;;;20.00;99.90;;;;;;5120535;27;20031;-43
2023/09/13 11:07:41;;;;;;;5.80;1.60;;;18.50;99.90;;;;;;5125440;27;20030;-51
2023/09/13 11:10:15;;;;;;;3.53;1.50;;;21.00;99.90;;;;;;5123758;27;20025;-43
2023/09/13 11:12:50;;;;;;;3.67;1.30;;;21.80;99.90;;;;;;5127296;27;20098;-55
2023/09/13 11:15:21;;;;;;;4.07;1.08;;;21.50;99.90;;;;;;5120953;27;20070;-52
2023/09/13 11:17:46;;;;;;;3.55;1.42;;;22.70;99.90;;;;;;5121522;27;20498;-45
2023/09/13 11:20:36;;;;;;;3.58;1.20;;;21.50;99.90;;;;;;5101913;27;20027;-51
2023/09/13 11:23:01;;;;;;;4.03;1.15;;;22.50;99.90;;;;;;5114954;28;20024;-55
2023/09/13 11:25:52;;;;;;;1.95;0.88;;;22.40;99.90;;;;;;5122282;27;20483;-53
2023/09/13 11:28:27;;;;;;;4.10;1.00;;;20.00;99.90;;;;;;5124489;27;20056;-49
2023/09/13 11:30:58;;;;;;;1.73;0.82;;;21.80;99.90;;;;;;5107058;28;20039;-60
2023/09/13 11:33:23;;;;;;;3.97;1.00;;;21.90;99.90;;;;;;5126571;27;20050;-58
2023/09/13 11:35:50;;;;;;;7.47;1.02;;;21.80;99.90;;;;;;5131197;27;20352;-46
2023/09/13 11:38:17;;;;;;;3.78;0.90;;;22.40;99.90;;;;;;5130548;27;20047;-47
2023/09/13 11:40:47;;;;;;;5.15;1.77;;;20.10;99.90;;;;;;5129674;28;20124;-50
2023/09/13 11:43:21;;;;;;;2.72;1.25;;;22.60;99.90;;;;;;5112372;28;20023;-53
2023/09/13 11:45:48;;;;;;;4.22;1.55;;;23.30;99.90;;;;;;5113167;28;20336;-55
2023/09/13 11:48:19;;;;;;;5.65;1.65;;;23.20;99.90;;;;;;5130992;28;20042;-56
2023/09/13 11:50:49;;;;;;;2.05;1.08;;;23.50;99.90;;;;;;5130681;27;20031;-54
2023/09/13 11:53:20;;;;;;;9.38;1.17;;;23.70;99.90;;;;;;5111194;28;20110;-47
2023/09/13 11:55:55;;;;;;;3.00;0.98;;;22.80;99.90;;;;;;5129198;28;20482;-51
2023/09/13 11:58:30;;;;;;;2.28;1.20;;;24.40;99.90;;;;;;5130174;27;20039;-59
2023/09/13 12:00:58;;;;;;;4.25;1.10;;;23.30;99.90;;;;;;5117693;27;20072;-45
2023/09/13 12:03:24;;;;;;;1.80;0.95;;;23.00;99.90;;;;;;5112485;28;20441;-53
2023/09/13 12:05:50;;;;;;;4.97;1.17;;;22.80;99.90;;;;;;5130717;27;20479;-50
2023/09/13 12:08:24;;;;;;;2.72;1.02;;;24.20;99.90;;;;;;5130882;28;20084;-54
2023/09/13 12:10:50;;;;;;;2.30;0.93;;;22.30;99.90;;;;;;5130861;27;20512;-56
2023/09/13 12:13:17;;;;;;;5.20;1.35;;;22.30;99.90;;;;;;5131093;27;20023;-44
2023/09/13 12:16:02;;;;;;;4.90;1.38;;;23.10;99.90;;;;;;5131110;27;20662;-50
2023/09/13 12:18:30;;;;;;;4.68;1.55;;;22.30;99.90;;;;;;5131132;28;20092;-54
2023/09/13 12:20:58;;;;;;;6.07;1.55;;;22.60;99.90;;;;;;5130765;28;20020;-59
2023/09/13 12:23:23;;;;;;;3.40;1.38;;;22.20;99.90;;;;;;5130860;27;20023;-52
2023/09/13 12:25:49;;;;;;;5.60;1.35;;;21.20;99.90;;;;;;5128645;27;20125;-54
2023/09/13 12:28:30;;;;;;;4.85;1.52;;;23.30;99.90;;;;;;5118503;28;20038;-54
2023/09/13 12:30:56;;;;;;;5.43;1.40;;;22.20;99.90;;;;;;5132466;27;20027;-55
2023/09/13 12:33:23;;;;;;;3.15;1.23;;;20.40;99.90;;;;;;5134728;27;20056;-43
2023/09/13 12:35:50;;;;;;;4.28;1.30;;;22.40;99.90;;;;;;5134466;27;20502;-55
2023/09/13 12:38:19;;;;;;;5.75;2.80;;;22.40;99.90;;;;;;5134543;27;20097;-47
2023/09/13 12:40:49;;;;;;;4.38;1.80;;;22.50;99.90;;;;;;5134824;27;20105;-44
2023/09/13 12:43:15;;;;;;;3.13;1.30;;;22.60;99.90;;;;;;5134286;27;20502;-44
2023/09/13 12:45:41;;;;;;;5.53;2.65;;;19.90;99.90;;;;;;5134480;27;20023;-51
2023/09/13 12:48:07;;;;;;;2.80;1.50;;;22.40;99.90;;;;;;5134158;27;20031;-54
2023/09/13 12:50:33;;;;;;;3.90;1.60;;;23.00;99.90;;;;;;5134328;27;20502;-57
2023/09/13 12:52:59;;;;;;;5.13;2.08;;;22.60;99.90;;;;;;5134045;27;20027;-49
2023/09/13 12:55:25;;;;;;;3.17;1.38;;;22.60;99.90;;;;;;5134255;27;20034;-54
2023/09/13 12:57:52;;;;;;;3.55;1.38;;;23.40;99.90;;;;;;5134148;27;20023;-47